Nearby METAR Reports

 

KSFO - San Francisco, California, USA
Distance from station: NNW 8km
Updated: Mon, 22-Oct-2018 12:56pm PDT
Few Clouds
Few Clouds
 Wind from WNW
Wind: WNW 12 mph , 19 km/h
Temperature: 63°F , 17°C
Dew Point: 48°F , 9°C
Humidity: 59%
Barometer: 29.95 inHg , 1014.2 hPa
Clouds: Few Clouds
Visibility: 10 miles , 16 km
Cloud details: Few Clouds 1000 ft
Few Clouds 1800 ft
2018/10/22 19:56 KSFO 221956Z 30010KT 10SM FEW010 FEW018 17/09 A2995 RMK AO2 SLP143 T01670094
KSQL - San Carlos Airpo, California, USA
Distance from station: ESE 8km
Updated: Mon, 22-Oct-2018 12:55pm PDT
Few Clouds
Few Clouds
 Wind from varies
Wind: varies 7 mph , 11 km/h
Temperature: 59°F , 15°C
Dew Point: 52°F , 11°C
Humidity: 77%
Barometer: 29.96 inHg , 1014.6 hPa
Clouds: Few Clouds
Visibility: 10 miles , 16 km
Cloud details: Few Clouds 1500 ft
2018/10/22 19:55 KSQL 221955Z VRB06KT 10SM FEW015 15/11 A2996
 
KHAF - Half Moon Bay, California, USA
Distance from station: WSW 15km
Updated: Wed, 03-Oct-2018 1:40pm PDT
NOT Current
Haze, Mostly cloudy
Haze, Mostly cloudy
 Wind from S
Wind: S 5 mph , 7 km/h
Temperature: 64°F , 18°C
Dew Point: 59°F , 15°C
Humidity: 83%
Barometer: 29.92 inHg , 1013.2 hPa
Summary: Haze
Clouds: Mostly cloudy
Visibility: 4 miles , 6 km
Cloud details: Few Clouds 2100 ft
Mostly cloudy 3000 ft
2018/10/03 20:40 KHAF 032040Z AUTO 19004KT 4SM HZ FEW021 BKN030 18/15 A2992 RMK AO2
KOAK - Oakland, California, USA
Distance from station: NNE 21km
Updated: Mon, 22-Oct-2018 12:53pm PDT
Clear
Clear
 Wind from W
Wind: W 7 mph , 11 km/h
Temperature: 61°F , 16°C
Dew Point: 50°F , 10°C
Humidity: 68%
Barometer: 29.97 inHg , 1014.9 hPa
Clouds: Clear
Visibility: 10 miles , 16 km
2018/10/22 19:53 KOAK 221953Z 26006KT 10SM CLR 16/10 A2997 RMK AO2 SLP149 T01560100
 
KPAO - Palo Alto, California, USA
Distance from station: ESE 21km
Updated: Mon, 22-Oct-2018 12:47pm PDT
Few Clouds
Few Clouds
 Wind from NNE
Wind: NNE 7 mph , 11 km/h
Temperature: 63°F , 17°C
Dew Point: 52°F , 11°C
Humidity: 68%
Barometer: 29.98 inHg , 1015.2 hPa
Clouds: Few Clouds
Visibility: 10 miles , 16 km
Cloud details: Few Clouds 1700 ft
2018/10/22 19:47 KPAO 221947Z 02006KT 10SM FEW017 17/11 A2998
KHWD - Hayward, California, USA
Distance from station: NE 23km
Updated: Mon, 22-Oct-2018 12:54pm PDT
Few Clouds
Few Clouds
 Wind from W
Wind: W 8 mph , 13 km/h
Temperature: 63°F , 17°C
Dew Point: 50°F , 10°C
Humidity: 64%
Barometer: 29.97 inHg , 1014.9 hPa
Clouds: Few Clouds
Visibility: 10 miles , 16 km
Cloud details: Few Clouds 1600 ft
2018/10/22 19:54 KHWD 221954Z 26007KT 10SM FEW016 17/10 A2997 RMK AO2 SLP157 T01720100
 
KNUQ - Moffett Nas/Mtn, California, USA
Distance from station: ESE 30km
Updated: Mon, 22-Oct-2018 12:56pm PDT
Clear
Clear
 Wind from varies
Wind: varies 3 mph , 6 km/h
Temperature: 61°F , 16°C
Dew Point: 52°F , 11°C
Humidity: 72%
Barometer: 29.97 inHg , 1014.9 hPa
Clouds: Clear
Visibility: 10 miles , 16 km
2018/10/22 19:56 KNUQ 221956Z VRB03KT 10SM CLR 16/11 A2997 RMK AO2 SLP150 T01610106
KSJC - San Jose, California, USA
Distance from station: ESE 42km
Updated: Mon, 22-Oct-2018 12:53pm PDT
Clear
Clear
 Wind from N
Wind: N 5 mph , 7 km/h
Temperature: 61°F , 16°C
Dew Point: 48°F , 9°C
Humidity: 63%
Barometer: 29.96 inHg , 1014.6 hPa
Clouds: Clear
Visibility: 7 miles , 11 km
2018/10/22 19:53 KSJC 221953Z 36004KT 7SM CLR 16/09 A2996 RMK AO2 SLP145 T01610094
 
KLVK - Livermore, California, USA
Distance from station: ENE 49km
Updated: Mon, 22-Oct-2018 12:53pm PDT
Clear
Clear
 Wind from W
Wind: W 6 mph , 9 km/h
Temperature: 66°F , 19°C
Dew Point: 50°F , 10°C
Humidity: 56%
Barometer: 29.93 inHg , 1013.5 hPa
Clouds: Clear
Visibility: 10 miles , 16 km
2018/10/22 19:53 KLVK 221953Z 26005KT 10SM CLR 19/10 A2993 RMK AO2 SLP134 T01940100
KRHV - San Jose/Reid, California, USA
Distance from station: ESE 53km
Updated: Mon, 22-Oct-2018 12:47pm PDT
Haze, Clear
Haze, Clear
 Wind from WNW
Wind: WNW 7 mph , 11 km/h
Temperature: 63°F , 17°C
Dew Point: 52°F , 11°C
Humidity: 68%
Barometer: 29.94 inHg , 1013.9 hPa
Summary: Haze
Clouds: Clear
Visibility: 8 miles , 13 km
2018/10/22 19:47 KRHV 221947Z 29006KT 8SM HZ SKC 17/11 A2994
 
KCCR - Concord, California, USA
Distance from station: NNE 56km
Updated: Mon, 22-Oct-2018 12:53pm PDT
Clear
Clear
 Wind from NNW
Wind: NNW 12 mph , 19 km/h
Temperature: 66°F , 19°C
Dew Point: 50°F , 10°C
Humidity: 56%
Barometer: 29.94 inHg , 1013.9 hPa
Clouds: Clear
Visibility: 10 miles , 16 km
2018/10/22 19:53 KCCR 221953Z 33010KT 10SM CLR 19/10 A2994 RMK AO2 SLP124 T01890100 $
KDVO - Novato/Gnoss Fld, California, USA
Distance from station: NNW 70km
Updated: Mon, 22-Oct-2018 1:35pm PDT
Clear
Clear
 Wind from varies
Wind: varies 7 mph , 11 km/h
Temperature: 68°F , 20°C
Dew Point: 52°F , 11°C
Humidity: 56%
Barometer: 29.94 inHg , 1013.9 hPa
Clouds: Clear
Visibility: 9 miles , 14 km
2018/10/22 20:35 KDVO 222035Z AUTO VRB06KT 9SM CLR 20/11 A2994 RMK AO2
 
KAPC - Napa, California, USA
Distance from station: N 73km
Updated: Mon, 22-Oct-2018 12:54pm PDT
Clear
Clear
 Wind from W
Wind: W 6 mph , 9 km/h
Temperature: 61°F , 16°C
Dew Point: 50°F , 10°C
Humidity: 68%
Barometer: 29.96 inHg , 1014.6 hPa
Clouds: Clear
Visibility: 10 miles , 16 km
2018/10/22 19:54 KAPC 221954Z 27005KT 10SM CLR 16/10 A2996 RMK AO2 SLP136 T01560100